sensor_id;sensor_type;location;lat;lon;timestamp;pressure;altitude;pressure_sealevel;temperature;humidity
14689;BME280;7432;48.728;9.154;2023-03-26T00:00:05;96120.66;;;7.26;92.33
14689;BME280;7432;48.728;9.154;2023-03-26T00:02:39;96117.81;;;7.29;92.75
14689;BME280;7432;48.728;9.154;2023-03-26T00:05:07;96112.16;;;7.26;93.02
14689;BME280;7432;48.728;9.154;2023-03-26T00:07:34;96115.25;;;7.29;92.71
14689;BME280;7432;48.728;9.154;2023-03-26T00:10:00;96111.94;;;7.19;93.04
14689;BME280;7432;48.728;9.154;2023-03-26T00:12:27;96101.88;;;7.18;92.46
14689;BME280;7432;48.728;9.154;2023-03-26T00:14:54;96113.56;;;7.20;92.81
14689;BME280;7432;48.728;9.154;2023-03-26T00:17:22;96107.34;;;7.23;93.57
14689;BME280;7432;48.728;9.154;2023-03-26T00:19:49;96108.28;;;7.22;92.85
14689;BME280;7432;48.728;9.154;2023-03-26T00:22:17;96109.91;;;7.23;91.87
14689;BME280;7432;48.728;9.154;2023-03-26T00:24:44;96111.22;;;7.27;91.77
14689;BME280;7432;48.728;9.154;2023-03-26T00:27:13;96112.38;;;7.32;91.81
14689;BME280;7432;48.728;9.154;2023-03-26T00:29:39;96107.41;;;7.31;91.57
14689;BME280;7432;48.728;9.154;2023-03-26T00:32:06;96110.19;;;7.37;92.52
14689;BME280;7432;48.728;9.154;2023-03-26T00:34:33;96115.84;;;7.23;92.17
14689;BME280;7432;48.728;9.154;2023-03-26T00:37:00;96109.25;;;7.21;91.67
14689;BME280;7432;48.728;9.154;2023-03-26T00:39:27;96117.38;;;7.16;91.54
14689;BME280;7432;48.728;9.154;2023-03-26T00:41:57;96110.50;;;7.16;91.61
14689;BME280;7432;48.728;9.154;2023-03-26T00:44:24;96110.94;;;7.12;92.48
14689;BME280;7432;48.728;9.154;2023-03-26T00:46:50;96097.72;;;6.99;92.56
14689;BME280;7432;48.728;9.154;2023-03-26T00:49:17;96092.16;;;7.03;92.15
14689;BME280;7432;48.728;9.154;2023-03-26T00:51:45;96094.94;;;7.10;92.55
14689;BME280;7432;48.728;9.154;2023-03-26T00:54:11;96091.91;;;7.14;91.33
14689;BME280;7432;48.728;9.154;2023-03-26T00:56:37;96088.34;;;7.07;91.50
14689;BME280;7432;48.728;9.154;2023-03-26T00:59:04;96084.63;;;7.02;92.65
14689;BME280;7432;48.728;9.154;2023-03-26T01:01:31;96080.00;;;7.05;91.83
14689;BME280;7432;48.728;9.154;2023-03-26T01:04:21;96073.94;;;7.06;91.71
14689;BME280;7432;48.728;9.154;2023-03-26T01:06:53;96071.44;;;6.97;92.49
14689;BME280;7432;48.728;9.154;2023-03-26T01:09:23;96067.81;;;6.99;93.33
14689;BME280;7432;48.728;9.154;2023-03-26T01:11:51;96068.13;;;6.96;92.70
14689;BME280;7432;48.728;9.154;2023-03-26T01:14:20;96062.94;;;6.88;93.57
14689;BME280;7432;48.728;9.154;2023-03-26T01:16:50;96055.47;;;6.77;93.39
14689;BME280;7432;48.728;9.154;2023-03-26T01:19:23;96053.41;;;6.81;93.39
14689;BME280;7432;48.728;9.154;2023-03-26T01:21:52;96028.50;;;6.65;94.16
14689;BME280;7432;48.728;9.154;2023-03-26T01:24:20;96045.72;;;6.81;94.58
14689;BME280;7432;48.728;9.154;2023-03-26T01:27:13;96039.44;;;6.75;93.83
14689;BME280;7432;48.728;9.154;2023-03-26T01:29:45;96041.06;;;6.76;94.55
14689;BME280;7432;48.728;9.154;2023-03-26T01:32:21;96041.44;;;6.81;94.10
14689;BME280;7432;48.728;9.154;2023-03-26T01:34:58;96032.66;;;6.84;93.72
14689;BME280;7432;48.728;9.154;2023-03-26T01:37:32;96029.59;;;6.80;93.18
14689;BME280;7432;48.728;9.154;2023-03-26T01:40:06;96027.34;;;6.77;93.77
14689;BME280;7432;48.728;9.154;2023-03-26T01:42:39;96010.31;;;6.68;93.63
14689;BME280;7432;48.728;9.154;2023-03-26T01:45:10;96013.56;;;6.78;93.94
14689;BME280;7432;48.728;9.154;2023-03-26T01:47:38;96009.25;;;6.79;94.53
14689;BME280;7432;48.728;9.154;2023-03-26T01:50:07;96015.84;;;6.81;93.81
14689;BME280;7432;48.728;9.154;2023-03-26T01:52:33;96004.78;;;6.81;93.82
14689;BME280;7432;48.728;9.154;2023-03-26T01:55:00;96000.78;;;6.78;93.85
14689;BME280;7432;48.728;9.154;2023-03-26T01:57:34;95995.38;;;6.81;93.58
14689;BME280;7432;48.728;9.154;2023-03-26T02:00:19;95981.28;;;6.77;93.34
14689;BME280;7432;48.728;9.154;2023-03-26T02:03:00;95974.53;;;6.76;93.74
14689;BME280;7432;48.728;9.154;2023-03-26T02:05:33;95976.81;;;6.79;93.76
14689;BME280;7432;48.728;9.154;2023-03-26T02:08:07;95988.66;;;6.80;93.89
14689;BME280;7432;48.728;9.154;2023-03-26T02:10:40;95972.84;;;6.85;93.82
14689;BME280;7432;48.728;9.154;2023-03-26T02:13:10;95969.47;;;6.84;94.02
14689;BME280;7432;48.728;9.154;2023-03-26T02:15:38;95963.25;;;6.87;93.38
14689;BME280;7432;48.728;9.154;2023-03-26T02:18:04;95962.31;;;6.88;93.43
14689;BME280;7432;48.728;9.154;2023-03-26T02:20:35;95954.13;;;6.84;92.75
14689;BME280;7432;48.728;9.154;2023-03-26T02:23:01;95944.41;;;6.88;92.05
14689;BME280;7432;48.728;9.154;2023-03-26T02:25:28;95939.63;;;6.93;92.00
14689;BME280;7432;48.728;9.154;2023-03-26T02:27:54;95938.19;;;6.90;92.10
14689;BME280;7432;48.728;9.154;2023-03-26T02:30:24;95933.19;;;6.89;92.59
14689;BME280;7432;48.728;9.154;2023-03-26T02:32:50;95948.19;;;6.84;91.95
14689;BME280;7432;48.728;9.154;2023-03-26T02:35:18;95938.44;;;6.79;92.03
14689;BME280;7432;48.728;9.154;2023-03-26T02:37:45;95939.97;;;6.72;92.04
14689;BME280;7432;48.728;9.154;2023-03-26T02:40:16;95917.50;;;6.58;91.99
14689;BME280;7432;48.728;9.154;2023-03-26T02:42:42;95935.94;;;6.70;91.78
14689;BME280;7432;48.728;9.154;2023-03-26T02:45:09;95932.44;;;6.71;91.89
14689;BME280;7432;48.728;9.154;2023-03-26T02:47:37;95931.34;;;6.73;91.85
14689;BME280;7432;48.728;9.154;2023-03-26T02:50:04;95926.09;;;6.75;91.66
14689;BME280;7432;48.728;9.154;2023-03-26T02:52:30;95924.94;;;6.69;91.47
14689;BME280;7432;48.728;9.154;2023-03-26T02:54:57;95928.94;;;6.72;92.52
14689;BME280;7432;48.728;9.154;2023-03-26T02:57:24;95918.56;;;6.73;92.71
14689;BME280;7432;48.728;9.154;2023-03-26T02:59:50;95873.97;;;6.50;92.79
14689;BME280;7432;48.728;9.154;2023-03-26T03:02:17;95914.59;;;6.79;92.31
14689;BME280;7432;48.728;9.154;2023-03-26T03:04:45;95897.19;;;6.82;92.17
14689;BME280;7432;48.728;9.154;2023-03-26T03:07:12;95886.16;;;6.82;91.72
14689;BME280;7432;48.728;9.154;2023-03-26T03:09:40;95883.00;;;6.88;91.61
14689;BME280;7432;48.728;9.154;2023-03-26T03:12:06;95877.25;;;6.94;91.92
14689;BME280;7432;48.728;9.154;2023-03-26T03:14:32;95869.59;;;6.94;91.34
14689;BME280;7432;48.728;9.154;2023-03-26T03:16:59;95865.88;;;6.88;91.73
14689;BME280;7432;48.728;9.154;2023-03-26T03:19:25;95865.41;;;6.93;92.09
14689;BME280;7432;48.728;9.154;2023-03-26T03:21:53;95855.66;;;6.88;91.80
14689;BME280;7432;48.728;9.154;2023-03-26T03:24:20;95858.34;;;6.87;92.35
14689;BME280;7432;48.728;9.154;2023-03-26T03:26:47;95850.38;;;6.90;92.11
14689;BME280;7432;48.728;9.154;2023-03-26T03:29:14;95839.59;;;6.78;92.21
14689;BME280;7432;48.728;9.154;2023-03-26T03:31:41;95842.19;;;6.86;92.39
14689;BME280;7432;48.728;9.154;2023-03-26T03:34:07;95833.69;;;6.86;92.51
14689;BME280;7432;48.728;9.154;2023-03-26T03:36:34;95839.81;;;6.93;91.71
14689;BME280;7432;48.728;9.154;2023-03-26T03:39:03;95839.81;;;6.93;92.33
14689;BME280;7432;48.728;9.154;2023-03-26T03:41:30;95837.59;;;6.98;92.18
14689;BME280;7432;48.728;9.154;2023-03-26T03:43:56;95823.69;;;7.00;92.54
14689;BME280;7432;48.728;9.154;2023-03-26T03:46:24;95835.03;;;6.98;90.91
14689;BME280;7432;48.728;9.154;2023-03-26T03:48:50;95823.34;;;6.95;92.56
14689;BME280;7432;48.728;9.154;2023-03-26T03:51:16;95823.56;;;7.02;91.41
14689;BME280;7432;48.728;9.154;2023-03-26T03:53:43;95825.31;;;7.01;92.03
14689;BME280;7432;48.728;9.154;2023-03-26T03:56:11;95821.97;;;7.09;91.08
14689;BME280;7432;48.728;9.154;2023-03-26T03:58:41;95812.66;;;7.08;91.66
14689;BME280;7432;48.728;9.154;2023-03-26T04:01:09;95808.22;;;7.10;91.77
14689;BME280;7432;48.728;9.154;2023-03-26T04:03:38;95802.75;;;7.05;91.02
14689;BME280;7432;48.728;9.154;2023-03-26T04:06:04;95802.91;;;7.03;91.96
14689;BME280;7432;48.728;9.154;2023-03-26T04:08:32;95800.19;;;7.05;91.64
14689;BME280;7432;48.728;9.154;2023-03-26T04:10:58;95799.09;;;7.07;90.65
14689;BME280;7432;48.728;9.154;2023-03-26T04:13:26;95791.88;;;7.03;91.19
14689;BME280;7432;48.728;9.154;2023-03-26T04:15:53;95791.25;;;7.09;91.34
14689;BME280;7432;48.728;9.154;2023-03-26T04:18:19;95783.72;;;7.07;90.67
14689;BME280;7432;48.728;9.154;2023-03-26T04:20:46;95784.50;;;7.08;91.17
14689;BME280;7432;48.728;9.154;2023-03-26T04:23:14;95780.38;;;7.07;90.65
14689;BME280;7432;48.728;9.154;2023-03-26T04:25:44;95780.50;;;7.05;90.81
14689;BME280;7432;48.728;9.154;2023-03-26T04:28:15;95760.34;;;7.10;89.97
14689;BME280;7432;48.728;9.154;2023-03-26T04:30:46;95753.00;;;7.07;91.54
14689;BME280;7432;48.728;9.154;2023-03-26T04:33:13;95755.09;;;7.12;90.38
14689;BME280;7432;48.728;9.154;2023-03-26T04:35:40;95722.75;;;6.95;90.13
14689;BME280;7432;48.728;9.154;2023-03-26T04:38:10;95743.53;;;7.00;91.53
14689;BME280;7432;48.728;9.154;2023-03-26T04:40:37;95747.22;;;6.97;91.79
14689;BME280;7432;48.728;9.154;2023-03-26T04:43:03;95739.53;;;6.97;91.07
14689;BME280;7432;48.728;9.154;2023-03-26T04:45:30;95729.31;;;6.97;92.14
14689;BME280;7432;48.728;9.154;2023-03-26T04:47:58;95722.59;;;6.96;92.03
14689;BME280;7432;48.728;9.154;2023-03-26T04:50:25;95713.94;;;6.97;91.78
14689;BME280;7432;48.728;9.154;2023-03-26T04:52:52;95715.56;;;6.98;92.05
14689;BME280;7432;48.728;9.154;2023-03-26T04:55:22;95715.25;;;7.01;91.93
14689;BME280;7432;48.728;9.154;2023-03-26T04:57:52;95709.81;;;7.04;91.91
14689;BME280;7432;48.728;9.154;2023-03-26T05:00:20;95715.56;;;7.06;91.80
14689;BME280;7432;48.728;9.154;2023-03-26T05:02:47;95709.50;;;7.07;90.70
14689;BME280;7432;48.728;9.154;2023-03-26T05:05:16;95720.38;;;7.09;91.54
14689;BME280;7432;48.728;9.154;2023-03-26T05:07:42;95713.97;;;7.13;92.02
14689;BME280;7432;48.728;9.154;2023-03-26T05:10:11;95718.75;;;7.08;91.25
14689;BME280;7432;48.728;9.154;2023-03-26T05:12:38;95716.38;;;7.07;91.20
14689;BME280;7432;48.728;9.154;2023-03-26T05:15:06;95707.72;;;7.08;90.77
14689;BME280;7432;48.728;9.154;2023-03-26T05:17:33;95710.78;;;7.11;92.00
14689;BME280;7432;48.728;9.154;2023-03-26T05:20:06;95697.34;;;7.09;91.29
14689;BME280;7432;48.728;9.154;2023-03-26T05:22:35;95695.41;;;7.11;91.13
14689;BME280;7432;48.728;9.154;2023-03-26T05:25:03;95685.81;;;7.13;91.97
14689;BME280;7432;48.728;9.154;2023-03-26T05:27:29;95678.94;;;7.14;91.16
14689;BME280;7432;48.728;9.154;2023-03-26T05:29:59;95658.63;;;7.04;92.01
14689;BME280;7432;48.728;9.154;2023-03-26T05:32:25;95675.75;;;7.20;91.54
14689;BME280;7432;48.728;9.154;2023-03-26T05:34:52;95674.63;;;7.23;91.42
14689;BME280;7432;48.728;9.154;2023-03-26T05:37:19;95668.38;;;7.25;90.98
14689;BME280;7432;48.728;9.154;2023-03-26T05:39:52;95654.31;;;7.29;89.88
14689;BME280;7432;48.728;9.154;2023-03-26T05:42:18;95664.56;;;7.21;87.34
14689;BME280;7432;48.728;9.154;2023-03-26T05:44:45;95661.50;;;7.26;86.78
14689;BME280;7432;48.728;9.154;2023-03-26T05:47:11;95667.25;;;7.28;87.52
14689;BME280;7432;48.728;9.154;2023-03-26T05:49:38;95654.44;;;7.28;88.22
14689;BME280;7432;48.728;9.154;2023-03-26T05:52:04;95647.75;;;7.35;87.16
14689;BME280;7432;48.728;9.154;2023-03-26T05:54:31;95629.03;;;7.34;86.31
14689;BME280;7432;48.728;9.154;2023-03-26T05:56:58;95628.03;;;7.43;88.14
14689;BME280;7432;48.728;9.154;2023-03-26T05:59:25;95610.44;;;7.40;87.67
14689;BME280;7432;48.728;9.154;2023-03-26T06:01:51;95616.69;;;7.46;86.62
14689;BME280;7432;48.728;9.154;2023-03-26T06:04:19;95609.47;;;7.49;87.81
14689;BME280;7432;48.728;9.154;2023-03-26T06:06:45;95599.84;;;7.51;88.11
14689;BME280;7432;48.728;9.154;2023-03-26T06:09:12;95590.72;;;7.49;87.84
14689;BME280;7432;48.728;9.154;2023-03-26T06:11:39;95592.34;;;7.50;85.73
14689;BME280;7432;48.728;9.154;2023-03-26T06:14:07;95590.56;;;7.50;85.31
14689;BME280;7432;48.728;9.154;2023-03-26T06:16:33;95592.81;;;7.53;86.74
14689;BME280;7432;48.728;9.154;2023-03-26T06:19:00;95580.31;;;7.58;87.69
14689;BME280;7432;48.728;9.154;2023-03-26T06:21:26;95579.66;;;7.64;86.17
14689;BME280;7432;48.728;9.154;2023-03-26T06:23:53;95567.66;;;7.65;87.29
14689;BME280;7432;48.728;9.154;2023-03-26T06:26:20;95573.41;;;7.67;84.55
14689;BME280;7432;48.728;9.154;2023-03-26T06:28:47;95566.03;;;7.72;83.13
14689;BME280;7432;48.728;9.154;2023-03-26T06:31:15;95570.31;;;7.80;83.24
14689;BME280;7432;48.728;9.154;2023-03-26T06:33:43;95561.81;;;7.79;83.25
14689;BME280;7432;48.728;9.154;2023-03-26T06:36:10;95557.19;;;7.74;83.64
14689;BME280;7432;48.728;9.154;2023-03-26T06:38:36;95563.72;;;7.85;83.42
14689;BME280;7432;48.728;9.154;2023-03-26T06:41:03;95564.06;;;7.82;82.08
14689;BME280;7432;48.728;9.154;2023-03-26T06:43:30;95562.47;;;7.81;83.12
14689;BME280;7432;48.728;9.154;2023-03-26T06:45:58;95562.03;;;7.69;83.90
14689;BME280;7432;48.728;9.154;2023-03-26T06:48:26;95546.31;;;7.72;83.53
14689;BME280;7432;48.728;9.154;2023-03-26T06:50:52;95536.53;;;7.76;83.96
14689;BME280;7432;48.728;9.154;2023-03-26T06:53:19;95536.53;;;7.76;83.64
14689;BME280;7432;48.728;9.154;2023-03-26T06:55:45;95535.41;;;7.79;84.74
14689;BME280;7432;48.728;9.154;2023-03-26T06:58:12;95535.06;;;7.82;85.04
14689;BME280;7432;48.728;9.154;2023-03-26T07:00:38;95540.84;;;7.84;85.60
14689;BME280;7432;48.728;9.154;2023-03-26T07:03:06;95527.56;;;7.80;81.62
14689;BME280;7432;48.728;9.154;2023-03-26T07:05:35;95517.63;;;7.77;81.98
14689;BME280;7432;48.728;9.154;2023-03-26T07:08:01;95509.16;;;7.68;83.44
14689;BME280;7432;48.728;9.154;2023-03-26T07:10:28;95510.44;;;7.72;82.80
14689;BME280;7432;48.728;9.154;2023-03-26T07:12:54;95503.03;;;7.86;82.79
14689;BME280;7432;48.728;9.154;2023-03-26T07:15:21;95496.78;;;7.80;81.95
14689;BME280;7432;48.728;9.154;2023-03-26T07:17:47;95495.94;;;7.88;82.27
14689;BME280;7432;48.728;9.154;2023-03-26T07:20:13;95497.41;;;7.82;82.18
14689;BME280;7432;48.728;9.154;2023-03-26T07:22:42;95488.31;;;7.80;81.24
14689;BME280;7432;48.728;9.154;2023-03-26T07:25:10;95494.41;;;7.79;82.52
14689;BME280;7432;48.728;9.154;2023-03-26T07:27:45;95478.69;;;7.82;84.87
14689;BME280;7432;48.728;9.154;2023-03-26T07:30:14;95471.00;;;7.82;83.50
14689;BME280;7432;48.728;9.154;2023-03-26T07:32:48;95474.72;;;7.71;86.16
14689;BME280;7432;48.728;9.154;2023-03-26T07:35:20;95457.50;;;7.65;87.31
14689;BME280;7432;48.728;9.154;2023-03-26T07:38:00;95465.00;;;7.66;88.85
14689;BME280;7432;48.728;9.154;2023-03-26T07:40:45;95446.75;;;7.61;89.50
14689;BME280;7432;48.728;9.154;2023-03-26T07:43:21;95460.28;;;7.47;88.50
14689;BME280;7432;48.728;9.154;2023-03-26T07:45:52;95442.72;;;7.36;89.50
14689;BME280;7432;48.728;9.154;2023-03-26T07:48:21;95440.78;;;7.38;91.45
14689;BME280;7432;48.728;9.154;2023-03-26T07:50:50;95423.38;;;7.26;90.78
14689;BME280;7432;48.728;9.154;2023-03-26T07:53:18;95434.91;;;7.22;91.66
14689;BME280;7432;48.728;9.154;2023-03-26T07:55:50;95441.47;;;7.24;93.23
14689;BME280;7432;48.728;9.154;2023-03-26T07:58:43;95431.22;;;7.32;94.28
14689;BME280;7432;48.728;9.154;2023-03-26T08:01:14;95439.00;;;7.39;95.29
14689;BME280;7432;48.728;9.154;2023-03-26T08:04:01;95437.41;;;7.46;95.13
14689;BME280;7432;48.728;9.154;2023-03-26T08:06:33;95438.84;;;7.48;95.51
14689;BME280;7432;48.728;9.154;2023-03-26T08:09:07;95435.94;;;7.43;94.53
14689;BME280;7432;48.728;9.154;2023-03-26T08:11:44;95428.28;;;7.35;96.73
14689;BME280;7432;48.728;9.154;2023-03-26T08:14:26;95427.19;;;7.30;96.74
14689;BME280;7432;48.728;9.154;2023-03-26T08:17:00;95415.84;;;7.24;97.52
14689;BME280;7432;48.728;9.154;2023-03-26T08:19:45;95399.75;;;7.15;98.57
14689;BME280;7432;48.728;9.154;2023-03-26T08:22:16;95386.81;;;7.09;97.55
14689;BME280;7432;48.728;9.154;2023-03-26T08:25:00;95402.44;;;7.22;98.68
14689;BME280;7432;48.728;9.154;2023-03-26T08:27:36;95393.66;;;7.16;98.67
14689;BME280;7432;48.728;9.154;2023-03-26T08:30:08;95388.72;;;7.15;98.26
14689;BME280;7432;48.728;9.154;2023-03-26T08:32:38;95390.75;;;7.20;99.00
14689;BME280;7432;48.728;9.154;2023-03-26T08:35:05;95384.97;;;7.26;98.56
14689;BME280;7432;48.728;9.154;2023-03-26T08:37:33;95382.59;;;7.16;98.73
14689;BME280;7432;48.728;9.154;2023-03-26T08:40:01;95377.13;;;7.27;99.04
14689;BME280;7432;48.728;9.154;2023-03-26T08:43:05;95371.19;;;7.35;99.02
14689;BME280;7432;48.728;9.154;2023-03-26T08:45:57;95369.78;;;7.55;99.18
14689;BME280;7432;48.728;9.154;2023-03-26T08:48:59;95381.75;;;7.62;97.67
14689;BME280;7432;48.728;9.154;2023-03-26T08:52:03;95383.72;;;7.83;99.28
14689;BME280;7432;48.728;9.154;2023-03-26T09:01:18;95381.06;;;8.74;96.72
14689;BME280;7432;48.728;9.154;2023-03-26T09:04:15;95371.03;;;8.64;96.55
14689;BME280;7432;48.728;9.154;2023-03-26T09:07:00;95359.66;;;9.32;95.75
14689;BME280;7432;48.728;9.154;2023-03-26T09:09:49;95376.50;;;11.17;91.02
14689;BME280;7432;48.728;9.154;2023-03-26T09:12:39;95377.22;;;12.32;81.58
14689;BME280;7432;48.728;9.154;2023-03-26T09:18:41;95379.38;;;11.48;84.72
14689;BME280;7432;48.728;9.154;2023-03-26T09:21:53;95385.13;;;12.89;76.81
14689;BME280;7432;48.728;9.154;2023-03-26T09:24:52;95396.97;;;16.61;64.52
14689;BME280;7432;48.728;9.154;2023-03-26T09:27:36;95388.94;;;16.86;62.40
14689;BME280;7432;48.728;9.154;2023-03-26T09:30:25;95404.66;;;15.96;64.33
14689;BME280;7432;48.728;9.154;2023-03-26T09:33:13;95387.69;;;17.00;63.31
14689;BME280;7432;48.728;9.154;2023-03-26T09:36:12;95385.91;;;18.03;58.56
14689;BME280;7432;48.728;9.154;2023-03-26T09:38:44;95381.59;;;16.94;60.10
14689;BME280;7432;48.728;9.154;2023-03-26T09:41:15;95372.69;;;18.21;56.50
14689;BME280;7432;48.728;9.154;2023-03-26T09:44:17;95385.06;;;19.69;52.27
14689;BME280;7432;48.728;9.154;2023-03-26T09:47:01;95381.06;;;20.68;50.48
14689;BME280;7432;48.728;9.154;2023-03-26T09:49:38;95393.34;;;20.36;49.71
14689;BME280;7432;48.728;9.154;2023-03-26T09:52:40;95359.59;;;18.83;52.51
14689;BME280;7432;48.728;9.154;2023-03-26T09:55:23;95364.66;;;16.80;57.84
14689;BME280;7432;48.728;9.154;2023-03-26T09:58:03;95366.88;;;16.12;60.65
14689;BME280;7432;48.728;9.154;2023-03-26T10:00:40;95365.75;;;15.78;61.73
14689;BME280;7432;48.728;9.154;2023-03-26T10:03:31;95353.88;;;14.80;64.80
14689;BME280;7432;48.728;9.154;2023-03-26T10:06:11;95350.00;;;15.07;61.39
14689;BME280;7432;48.728;9.154;2023-03-26T10:09:06;95349.59;;;14.67;62.07
14689;BME280;7432;48.728;9.154;2023-03-26T10:11:51;95360.66;;;14.00;63.01
14689;BME280;7432;48.728;9.154;2023-03-26T10:14:25;95361.94;;;13.85;64.76
14689;BME280;7432;48.728;9.154;2023-03-26T10:17:01;95352.16;;;14.18;64.30
14689;BME280;7432;48.728;9.154;2023-03-26T10:19:43;95360.31;;;14.53;63.13
14689;BME280;7432;48.728;9.154;2023-03-26T10:22:21;95358.25;;;14.79;62.59
14689;BME280;7432;48.728;9.154;2023-03-26T10:25:12;95333.00;;;14.93;62.48
14689;BME280;7432;48.728;9.154;2023-03-26T10:27:49;95354.94;;;14.72;59.97
14689;BME280;7432;48.728;9.154;2023-03-26T10:30:30;95338.88;;;14.64;58.21
14689;BME280;7432;48.728;9.154;2023-03-26T10:33:12;95340.44;;;13.84;57.60
14689;BME280;7432;48.728;9.154;2023-03-26T10:35:46;95350.06;;;13.71;57.16
14689;BME280;7432;48.728;9.154;2023-03-26T10:38:22;95341.03;;;13.48;55.63
14689;BME280;7432;48.728;9.154;2023-03-26T10:40:58;95355.06;;;13.28;57.21
14689;BME280;7432;48.728;9.154;2023-03-26T10:43:43;95355.88;;;13.15;56.42
14689;BME280;7432;48.728;9.154;2023-03-26T10:46:43;95362.03;;;13.21;57.36
14689;BME280;7432;48.728;9.154;2023-03-26T10:49:34;95358.91;;;13.50;56.88
14689;BME280;7432;48.728;9.154;2023-03-26T10:52:07;95352.66;;;13.71;56.90
14689;BME280;7432;48.728;9.154;2023-03-26T10:54:42;95353.66;;;13.70;57.50
14689;BME280;7432;48.728;9.154;2023-03-26T10:57:23;95357.25;;;13.69;57.82
14689;BME280;7432;48.728;9.154;2023-03-26T10:59:52;95365.50;;;13.46;57.80
14689;BME280;7432;48.728;9.154;2023-03-26T11:02:26;95371.19;;;13.10;58.27
14689;BME280;7432;48.728;9.154;2023-03-26T11:05:02;95361.50;;;12.86;56.91
14689;BME280;7432;48.728;9.154;2023-03-26T11:07:36;95363.09;;;12.61;56.78
14689;BME280;7432;48.728;9.154;2023-03-26T11:10:08;95374.22;;;12.61;56.29
14689;BME280;7432;48.728;9.154;2023-03-26T11:12:44;95360.28;;;12.82;56.53
14689;BME280;7432;48.728;9.154;2023-03-26T11:15:20;95364.59;;;13.27;56.82
14689;BME280;7432;48.728;9.154;2023-03-26T11:17:59;95360.66;;;13.62;55.65
14689;BME280;7432;48.728;9.154;2023-03-26T11:20:35;95364.44;;;13.98;55.22
14689;BME280;7432;48.728;9.154;2023-03-26T11:23:14;95351.59;;;13.40;53.69
14689;BME280;7432;48.728;9.154;2023-03-26T11:25:50;95347.72;;;13.18;54.63
14689;BME280;7432;48.728;9.154;2023-03-26T11:28:32;95348.78;;;12.78;55.89
14689;BME280;7432;48.728;9.154;2023-03-26T11:31:09;95347.19;;;12.83;56.62
14689;BME280;7432;48.728;9.154;2023-03-26T11:33:44;95343.00;;;12.82;56.03
14689;BME280;7432;48.728;9.154;2023-03-26T11:36:15;95329.31;;;12.75;56.03
14689;BME280;7432;48.728;9.154;2023-03-26T11:38:45;95336.25;;;12.68;54.80
14689;BME280;7432;48.728;9.154;2023-03-26T11:41:14;95331.31;;;12.67;54.48
14689;BME280;7432;48.728;9.154;2023-03-26T11:43:44;95328.50;;;12.81;54.68
14689;BME280;7432;48.728;9.154;2023-03-26T11:46:17;95321.56;;;12.75;55.67
14689;BME280;7432;48.728;9.154;2023-03-26T11:48:45;95327.31;;;12.84;54.22
14689;BME280;7432;48.728;9.154;2023-03-26T11:51:18;95321.31;;;12.90;54.09
14689;BME280;7432;48.728;9.154;2023-03-26T11:53:48;95334.81;;;13.05;55.10
14689;BME280;7432;48.728;9.154;2023-03-26T11:56:19;95333.78;;;13.06;52.51
14689;BME280;7432;48.728;9.154;2023-03-26T11:58:53;95321.69;;;13.00;52.51
14689;BME280;7432;48.728;9.154;2023-03-26T12:01:26;95324.88;;;13.09;52.64
14689;BME280;7432;48.728;9.154;2023-03-26T12:03:56;95328.63;;;13.19;53.90
14689;BME280;7432;48.728;9.154;2023-03-26T12:06:24;95325.41;;;13.30;51.88
14689;BME280;7432;48.728;9.154;2023-03-26T12:08:52;95322.28;;;13.59;51.37
14689;BME280;7432;48.728;9.154;2023-03-26T12:11:23;95331.34;;;13.75;49.80
14689;BME280;7432;48.728;9.154;2023-03-26T12:13:55;95333.25;;;13.86;49.08
14689;BME280;7432;48.728;9.154;2023-03-26T12:16:23;95313.09;;;13.95;49.50
14689;BME280;7432;48.728;9.154;2023-03-26T12:18:57;95327.59;;;13.71;48.22
14689;BME280;7432;48.728;9.154;2023-03-26T12:21:24;95323.44;;;13.63;49.57
14689;BME280;7432;48.728;9.154;2023-03-26T12:23:57;95321.03;;;13.69;48.01
14689;BME280;7432;48.728;9.154;2023-03-26T12:26:30;95317.94;;;13.85;46.26
14689;BME280;7432;48.728;9.154;2023-03-26T12:29:04;95320.16;;;13.81;46.80
14689;BME280;7432;48.728;9.154;2023-03-26T12:31:40;95324.75;;;13.79;46.65
14689;BME280;7432;48.728;9.154;2023-03-26T12:34:14;95320.00;;;13.76;45.86
14689;BME280;7432;48.728;9.154;2023-03-26T12:36:47;95322.53;;;13.83;44.90
14689;BME280;7432;48.728;9.154;2023-03-26T12:39:35;95315.22;;;14.04;46.43
14689;BME280;7432;48.728;9.154;2023-03-26T12:42:04;95312.84;;;14.27;46.26
14689;BME280;7432;48.728;9.154;2023-03-26T12:44:35;95313.59;;;14.35;45.28
14689;BME280;7432;48.728;9.154;2023-03-26T12:47:15;95306.44;;;14.37;46.14
14689;BME280;7432;48.728;9.154;2023-03-26T12:49:43;95299.44;;;14.37;46.42
14689;BME280;7432;48.728;9.154;2023-03-26T12:52:25;95305.00;;;14.41;45.75
14689;BME280;7432;48.728;9.154;2023-03-26T12:55:00;95288.63;;;14.15;45.89
14689;BME280;7432;48.728;9.154;2023-03-26T12:57:32;95286.94;;;14.03;44.43
14689;BME280;7432;48.728;9.154;2023-03-26T13:00:16;95294.59;;;13.91;44.01
14689;BME280;7432;48.728;9.154;2023-03-26T13:03:01;95292.00;;;13.91;44.13
14689;BME280;7432;48.728;9.154;2023-03-26T13:05:39;95287.31;;;13.82;44.73
14689;BME280;7432;48.728;9.154;2023-03-26T13:08:28;95282.41;;;13.67;45.56
14689;BME280;7432;48.728;9.154;2023-03-26T13:11:02;95284.28;;;13.60;45.53
14689;BME280;7432;48.728;9.154;2023-03-26T13:13:52;95280.63;;;13.68;45.96
14689;BME280;7432;48.728;9.154;2023-03-26T13:16:28;95273.69;;;13.93;44.55
14689;BME280;7432;48.728;9.154;2023-03-26T13:19:02;95277.31;;;14.10;43.25
14689;BME280;7432;48.728;9.154;2023-03-26T13:21:39;95267.63;;;14.05;43.82
14689;BME280;7432;48.728;9.154;2023-03-26T13:24:18;95268.78;;;14.09;44.08
14689;BME280;7432;48.728;9.154;2023-03-26T13:26:56;95273.75;;;14.11;42.80
14689;BME280;7432;48.728;9.154;2023-03-26T13:29:31;95263.19;;;14.12;41.54
14689;BME280;7432;48.728;9.154;2023-03-26T13:32:06;95268.03;;;14.27;41.18
14689;BME280;7432;48.728;9.154;2023-03-26T13:34:43;95266.28;;;14.21;40.09
14689;BME280;7432;48.728;9.154;2023-03-26T13:37:16;95273.75;;;14.11;39.72
14689;BME280;7432;48.728;9.154;2023-03-26T13:39:56;95249.50;;;14.05;40.29
14689;BME280;7432;48.728;9.154;2023-03-26T13:42:36;95254.25;;;14.08;40.50
14689;BME280;7432;48.728;9.154;2023-03-26T13:45:13;95248.81;;;14.16;40.95
14689;BME280;7432;48.728;9.154;2023-03-26T13:47:48;95251.91;;;14.25;40.85
14689;BME280;7432;48.728;9.154;2023-03-26T13:50:20;95258.38;;;14.16;40.96
14689;BME280;7432;48.728;9.154;2023-03-26T13:52:52;95250.06;;;14.07;41.58
14689;BME280;7432;48.728;9.154;2023-03-26T13:55:24;95249.81;;;13.91;41.67